sensor_id;sensor_type;location;lat;lon;timestamp;P1;durP1;ratioP1;P2;durP2;ratioP2
64295;SDS011;51082;38.236;15.432;2023-06-24T00:00:45;1.20;;;1.08;;
64295;SDS011;51082;38.236;15.432;2023-06-24T00:01:47;1.80;;;1.38;;
64295;SDS011;51082;38.236;15.432;2023-06-24T00:02:50;1.17;;;0.93;;
64295;SDS011;51082;38.236;15.432;2023-06-24T00:03:56;1.58;;;1.48;;
64295;SDS011;51082;38.236;15.432;2023-06-24T00:04:59;2.40;;;1.42;;
64295;SDS011;51082;38.236;15.432;2023-06-24T00:06:01;2.38;;;1.30;;
64295;SDS011;51082;38.236;15.432;2023-06-24T00:07:04;1.20;;;1.10;;
64295;SDS011;51082;38.236;15.432;2023-06-24T00:08:06;1.30;;;1.20;;
64295;SDS011;51082;38.236;15.432;2023-06-24T00:09:08;0.95;;;0.93;;
64295;SDS011;51082;38.236;15.432;2023-06-24T00:10:10;1.80;;;1.27;;
64295;SDS011;51082;38.236;15.432;2023-06-24T00:11:14;1.98;;;1.30;;
64295;SDS011;51082;38.236;15.432;2023-06-24T00:12:16;2.47;;;1.30;;
64295;SDS011;51082;38.236;15.432;2023-06-24T00:13:19;1.23;;;1.13;;
64295;SDS011;51082;38.236;15.432;2023-06-24T00:14:21;3.10;;;1.50;;
64295;SDS011;51082;38.236;15.432;2023-06-24T00:15:26;2.75;;;1.25;;
64295;SDS011;51082;38.236;15.432;2023-06-24T00:16:29;1.40;;;1.17;;
64295;SDS011;51082;38.236;15.432;2023-06-24T00:17:31;1.73;;;1.50;;
64295;SDS011;51082;38.236;15.432;2023-06-24T00:18:33;1.83;;;1.38;;
64295;SDS011;51082;38.236;15.432;2023-06-24T00:19:37;2.25;;;1.35;;
64295;SDS011;51082;38.236;15.432;2023-06-24T00:20:39;2.00;;;1.63;;
64295;SDS011;51082;38.236;15.432;2023-06-24T00:21:43;1.88;;;1.63;;
64295;SDS011;51082;38.236;15.432;2023-06-24T00:22:46;2.55;;;1.23;;
64295;SDS011;51082;38.236;15.432;2023-06-24T00:23:49;5.55;;;1.98;;
64295;SDS011;51082;38.236;15.432;2023-06-24T00:24:51;1.42;;;1.33;;
64295;SDS011;51082;38.236;15.432;2023-06-24T00:25:53;7.53;;;1.52;;
64295;SDS011;51082;38.236;15.432;2023-06-24T00:26:57;1.45;;;1.33;;
64295;SDS011;51082;38.236;15.432;2023-06-24T00:27:58;1.40;;;1.10;;
64295;SDS011;51082;38.236;15.432;2023-06-24T00:29:01;1.48;;;1.00;;
64295;SDS011;51082;38.236;15.432;2023-06-24T00:30:03;1.42;;;1.00;;
64295;SDS011;51082;38.236;15.432;2023-06-24T00:31:07;1.88;;;1.25;;
64295;SDS011;51082;38.236;15.432;2023-06-24T00:32:08;1.55;;;1.45;;
64295;SDS011;51082;38.236;15.432;2023-06-24T00:33:11;1.10;;;1.00;;
64295;SDS011;51082;38.236;15.432;2023-06-24T00:34:14;2.55;;;1.60;;
64295;SDS011;51082;38.236;15.432;2023-06-24T00:35:22;1.73;;;1.17;;
64295;SDS011;51082;38.236;15.432;2023-06-24T00:36:23;2.45;;;1.70;;
64295;SDS011;51082;38.236;15.432;2023-06-24T00:37:27;1.42;;;1.15;;
64295;SDS011;51082;38.236;15.432;2023-06-24T00:38:29;6.93;;;1.25;;
64295;SDS011;51082;38.236;15.432;2023-06-24T00:39:32;1.20;;;1.15;;
64295;SDS011;51082;38.236;15.432;2023-06-24T00:40:34;1.33;;;1.02;;
64295;SDS011;51082;38.236;15.432;2023-06-24T00:41:37;2.33;;;1.15;;
64295;SDS011;51082;38.236;15.432;2023-06-24T00:42:39;4.10;;;1.40;;
64295;SDS011;51082;38.236;15.432;2023-06-24T00:43:42;1.15;;;1.05;;
64295;SDS011;51082;38.236;15.432;2023-06-24T00:44:43;0.80;;;0.80;;
64295;SDS011;51082;38.236;15.432;2023-06-24T00:45:46;4.85;;;1.50;;
64295;SDS011;51082;38.236;15.432;2023-06-24T00:46:49;1.95;;;1.13;;
64295;SDS011;51082;38.236;15.432;2023-06-24T00:47:52;4.18;;;1.45;;
64295;SDS011;51082;38.236;15.432;2023-06-24T00:48:55;3.22;;;1.67;;
64295;SDS011;51082;38.236;15.432;2023-06-24T00:49:58;1.17;;;1.08;;
64295;SDS011;51082;38.236;15.432;2023-06-24T00:51:02;1.10;;;1.00;;
64295;SDS011;51082;38.236;15.432;2023-06-24T00:52:05;1.33;;;1.23;;
64295;SDS011;51082;38.236;15.432;2023-06-24T00:54:16;1.42;;;0.88;;
64295;SDS011;51082;38.236;15.432;2023-06-24T00:55:18;2.13;;;1.50;;
64295;SDS011;51082;38.236;15.432;2023-06-24T00:56:22;1.63;;;1.38;;
64295;SDS011;51082;38.236;15.432;2023-06-24T00:57:29;5.25;;;1.13;;
64295;SDS011;51082;38.236;15.432;2023-06-24T00:58:31;2.15;;;1.25;;
64295;SDS011;51082;38.236;15.432;2023-06-24T00:59:37;1.85;;;1.40;;
64295;SDS011;51082;38.236;15.432;2023-06-24T01:00:40;1.10;;;1.00;;
64295;SDS011;51082;38.236;15.432;2023-06-24T01:01:43;4.43;;;1.40;;
64295;SDS011;51082;38.236;15.432;2023-06-24T01:02:47;2.40;;;1.25;;
64295;SDS011;51082;38.236;15.432;2023-06-24T01:03:49;1.48;;;1.38;;
64295;SDS011;51082;38.236;15.432;2023-06-24T01:04:52;3.30;;;1.48;;
64295;SDS011;51082;38.236;15.432;2023-06-24T01:05:53;2.25;;;1.20;;
64295;SDS011;51082;38.236;15.432;2023-06-24T01:06:58;6.45;;;0.95;;
64295;SDS011;51082;38.236;15.432;2023-06-24T01:07:59;2.63;;;1.25;;
64295;SDS011;51082;38.236;15.432;2023-06-24T01:09:03;2.75;;;2.30;;
64295;SDS011;51082;38.236;15.432;2023-06-24T01:10:06;2.00;;;1.30;;
64295;SDS011;51082;38.236;15.432;2023-06-24T01:11:10;1.73;;;1.63;;
64295;SDS011;51082;38.236;15.432;2023-06-24T01:12:12;1.42;;;1.23;;
64295;SDS011;51082;38.236;15.432;2023-06-24T01:13:15;2.50;;;1.23;;
64295;SDS011;51082;38.236;15.432;2023-06-24T01:14:17;2.47;;;1.65;;
64295;SDS011;51082;38.236;15.432;2023-06-24T01:15:20;2.10;;;1.42;;
64295;SDS011;51082;38.236;15.432;2023-06-24T01:16:25;3.53;;;1.55;;
64295;SDS011;51082;38.236;15.432;2023-06-24T01:17:37;1.40;;;1.30;;
64295;SDS011;51082;38.236;15.432;2023-06-24T01:18:45;2.40;;;1.42;;
64295;SDS011;51082;38.236;15.432;2023-06-24T01:19:54;3.80;;;1.52;;
64295;SDS011;51082;38.236;15.432;2023-06-24T01:21:07;2.85;;;1.45;;
64295;SDS011;51082;38.236;15.432;2023-06-24T01:22:24;2.50;;;1.50;;
64295;SDS011;51082;38.236;15.432;2023-06-24T01:23:42;1.85;;;1.60;;
64295;SDS011;51082;38.236;15.432;2023-06-24T01:26:33;2.95;;;1.20;;
64295;SDS011;51082;38.236;15.432;2023-06-24T01:29:06;1.88;;;1.08;;
64295;SDS011;51082;38.236;15.432;2023-06-24T01:30:28;1.50;;;1.40;;
64295;SDS011;51082;38.236;15.432;2023-06-24T01:31:45;1.63;;;1.45;;
64295;SDS011;51082;38.236;15.432;2023-06-24T01:32:52;4.63;;;1.50;;
64295;SDS011;51082;38.236;15.432;2023-06-24T01:33:58;1.35;;;1.20;;
64295;SDS011;51082;38.236;15.432;2023-06-24T01:35:11;2.22;;;1.58;;
64295;SDS011;51082;38.236;15.432;2023-06-24T01:36:17;3.10;;;2.25;;
64295;SDS011;51082;38.236;15.432;2023-06-24T01:37:20;1.48;;;1.23;;
64295;SDS011;51082;38.236;15.432;2023-06-24T01:38:30;1.20;;;1.13;;
64295;SDS011;51082;38.236;15.432;2023-06-24T01:39:42;1.50;;;1.35;;
64295;SDS011;51082;38.236;15.432;2023-06-24T01:40:49;2.58;;;1.58;;
64295;SDS011;51082;38.236;15.432;2023-06-24T01:41:54;2.95;;;1.48;;
64295;SDS011;51082;38.236;15.432;2023-06-24T01:43:03;5.93;;;1.88;;
64295;SDS011;51082;38.236;15.432;2023-06-24T01:44:07;1.50;;;1.40;;
64295;SDS011;51082;38.236;15.432;2023-06-24T01:45:16;1.50;;;1.17;;
64295;SDS011;51082;38.236;15.432;2023-06-24T01:46:22;3.25;;;1.63;;
64295;SDS011;51082;38.236;15.432;2023-06-24T01:47:29;1.65;;;1.40;;
64295;SDS011;51082;38.236;15.432;2023-06-24T01:48:32;2.78;;;1.55;;
64295;SDS011;51082;38.236;15.432;2023-06-24T01:49:38;6.18;;;1.33;;
64295;SDS011;51082;38.236;15.432;2023-06-24T01:50:44;2.22;;;1.58;;
64295;SDS011;51082;38.236;15.432;2023-06-24T01:51:51;2.13;;;1.25;;
64295;SDS011;51082;38.236;15.432;2023-06-24T01:52:53;3.15;;;1.20;;
64295;SDS011;51082;38.236;15.432;2023-06-24T01:54:00;1.52;;;1.20;;
64295;SDS011;51082;38.236;15.432;2023-06-24T01:55:04;1.00;;;0.90;;
64295;SDS011;51082;38.236;15.432;2023-06-24T01:56:08;1.58;;;1.30;;
64295;SDS011;51082;38.236;15.432;2023-06-24T01:57:14;3.13;;;1.27;;
64295;SDS011;51082;38.236;15.432;2023-06-24T01:58:19;1.85;;;1.50;;
64295;SDS011;51082;38.236;15.432;2023-06-24T01:59:23;1.55;;;1.45;;
64295;SDS011;51082;38.236;15.432;2023-06-24T02:00:30;2.45;;;1.25;;
64295;SDS011;51082;38.236;15.432;2023-06-24T02:01:33;1.63;;;1.27;;
64295;SDS011;51082;38.236;15.432;2023-06-24T02:02:39;2.15;;;1.58;;
64295;SDS011;51082;38.236;15.432;2023-06-24T02:03:41;5.80;;;1.98;;
64295;SDS011;51082;38.236;15.432;2023-06-24T02:04:45;2.05;;;1.58;;
64295;SDS011;51082;38.236;15.432;2023-06-24T02:05:46;2.95;;;1.10;;
64295;SDS011;51082;38.236;15.432;2023-06-24T02:06:51;1.75;;;1.23;;
64295;SDS011;51082;38.236;15.432;2023-06-24T02:07:54;2.17;;;1.88;;
64295;SDS011;51082;38.236;15.432;2023-06-24T02:08:58;2.55;;;1.60;;
64295;SDS011;51082;38.236;15.432;2023-06-24T02:10:04;1.00;;;0.90;;
64295;SDS011;51082;38.236;15.432;2023-06-24T02:11:09;2.17;;;1.85;;
64295;SDS011;51082;38.236;15.432;2023-06-24T02:12:13;2.03;;;1.50;;
64295;SDS011;51082;38.236;15.432;2023-06-24T02:13:17;1.83;;;1.50;;
64295;SDS011;51082;38.236;15.432;2023-06-24T02:14:19;2.03;;;1.70;;
64295;SDS011;51082;38.236;15.432;2023-06-24T02:15:22;1.48;;;1.38;;
64295;SDS011;51082;38.236;15.432;2023-06-24T02:16:25;3.33;;;1.40;;
64295;SDS011;51082;38.236;15.432;2023-06-24T02:17:28;2.83;;;1.60;;
64295;SDS011;51082;38.236;15.432;2023-06-24T02:18:32;1.38;;;1.23;;
64295;SDS011;51082;38.236;15.432;2023-06-24T02:19:36;1.20;;;1.10;;
64295;SDS011;51082;38.236;15.432;2023-06-24T02:20:40;2.92;;;1.55;;
64295;SDS011;51082;38.236;15.432;2023-06-24T02:21:44;1.65;;;1.23;;
64295;SDS011;51082;38.236;15.432;2023-06-24T02:22:48;1.10;;;1.00;;
64295;SDS011;51082;38.236;15.432;2023-06-24T02:23:50;3.40;;;1.77;;
64295;SDS011;51082;38.236;15.432;2023-06-24T02:24:54;1.40;;;1.30;;
64295;SDS011;51082;38.236;15.432;2023-06-24T02:25:57;3.10;;;1.75;;
64295;SDS011;51082;38.236;15.432;2023-06-24T02:27:00;2.40;;;1.45;;
64295;SDS011;51082;38.236;15.432;2023-06-24T02:28:02;3.00;;;1.60;;
64295;SDS011;51082;38.236;15.432;2023-06-24T02:29:05;3.13;;;1.50;;
64295;SDS011;51082;38.236;15.432;2023-06-24T02:30:10;2.45;;;1.35;;
64295;SDS011;51082;38.236;15.432;2023-06-24T02:31:14;5.00;;;1.42;;
64295;SDS011;51082;38.236;15.432;2023-06-24T02:32:16;1.52;;;1.33;;
64295;SDS011;51082;38.236;15.432;2023-06-24T02:33:19;5.78;;;1.42;;
64295;SDS011;51082;38.236;15.432;2023-06-24T02:34:23;1.63;;;1.25;;
64295;SDS011;51082;38.236;15.432;2023-06-24T02:35:26;3.90;;;1.63;;
64295;SDS011;51082;38.236;15.432;2023-06-24T02:36:28;1.75;;;1.17;;
64295;SDS011;51082;38.236;15.432;2023-06-24T02:37:30;1.80;;;1.52;;
64295;SDS011;51082;38.236;15.432;2023-06-24T02:38:32;6.35;;;1.50;;
64295;SDS011;51082;38.236;15.432;2023-06-24T02:39:35;2.00;;;1.50;;
64295;SDS011;51082;38.236;15.432;2023-06-24T02:40:39;1.67;;;1.15;;
64295;SDS011;51082;38.236;15.432;2023-06-24T02:41:45;2.33;;;1.38;;
64295;SDS011;51082;38.236;15.432;2023-06-24T02:42:48;1.17;;;1.10;;
64295;SDS011;51082;38.236;15.432;2023-06-24T02:43:51;2.40;;;1.17;;
64295;SDS011;51082;38.236;15.432;2023-06-24T02:44:53;3.88;;;1.60;;
64295;SDS011;51082;38.236;15.432;2023-06-24T02:45:55;2.10;;;1.48;;
64295;SDS011;51082;38.236;15.432;2023-06-24T02:46:59;3.67;;;1.60;;
64295;SDS011;51082;38.236;15.432;2023-06-24T02:48:02;1.77;;;1.63;;
64295;SDS011;51082;38.236;15.432;2023-06-24T02:49:05;2.63;;;1.75;;
64295;SDS011;51082;38.236;15.432;2023-06-24T02:50:11;2.05;;;1.20;;
64295;SDS011;51082;38.236;15.432;2023-06-24T02:51:14;3.17;;;1.42;;
64295;SDS011;51082;38.236;15.432;2023-06-24T02:52:17;1.63;;;1.42;;
64295;SDS011;51082;38.236;15.432;2023-06-24T02:53:19;2.50;;;1.30;;
64295;SDS011;51082;38.236;15.432;2023-06-24T02:54:22;1.95;;;1.50;;
64295;SDS011;51082;38.236;15.432;2023-06-24T02:55:24;1.50;;;1.40;;
64295;SDS011;51082;38.236;15.432;2023-06-24T02:56:28;1.52;;;1.13;;
64295;SDS011;51082;38.236;15.432;2023-06-24T02:57:31;1.33;;;1.23;;
64295;SDS011;51082;38.236;15.432;2023-06-24T02:58:34;3.00;;;1.25;;
64295;SDS011;51082;38.236;15.432;2023-06-24T02:59:39;4.47;;;1.92;;
64295;SDS011;51082;38.236;15.432;2023-06-24T03:00:40;1.40;;;1.30;;
64295;SDS011;51082;38.236;15.432;2023-06-24T03:01:43;6.10;;;1.58;;
64295;SDS011;51082;38.236;15.432;2023-06-24T03:02:46;1.90;;;1.52;;
64295;SDS011;51082;38.236;15.432;2023-06-24T03:03:49;1.45;;;1.35;;
64295;SDS011;51082;38.236;15.432;2023-06-24T03:04:53;1.38;;;1.27;;
64295;SDS011;51082;38.236;15.432;2023-06-24T03:05:59;1.48;;;1.38;;
64295;SDS011;51082;38.236;15.432;2023-06-24T03:07:03;2.38;;;1.33;;
64295;SDS011;51082;38.236;15.432;2023-06-24T03:08:06;1.25;;;1.15;;
64295;SDS011;51082;38.236;15.432;2023-06-24T03:09:08;2.08;;;1.58;;
64295;SDS011;51082;38.236;15.432;2023-06-24T03:10:11;5.20;;;1.77;;
64295;SDS011;51082;38.236;15.432;2023-06-24T03:11:15;4.18;;;1.73;;
64295;SDS011;51082;38.236;15.432;2023-06-24T03:12:17;1.88;;;1.48;;
64295;SDS011;51082;38.236;15.432;2023-06-24T03:13:19;5.45;;;1.50;;
64295;SDS011;51082;38.236;15.432;2023-06-24T03:14:22;4.63;;;1.30;;
64295;SDS011;51082;38.236;15.432;2023-06-24T03:15:24;1.20;;;1.10;;
64295;SDS011;51082;38.236;15.432;2023-06-24T03:16:26;4.82;;;1.67;;
64295;SDS011;51082;38.236;15.432;2023-06-24T03:17:28;1.40;;;1.30;;
64295;SDS011;51082;38.236;15.432;2023-06-24T03:18:32;2.22;;;1.60;;
64295;SDS011;51082;38.236;15.432;2023-06-24T03:19:33;2.63;;;2.08;;
64295;SDS011;51082;38.236;15.432;2023-06-24T03:20:36;1.90;;;1.48;;
64295;SDS011;51082;38.236;15.432;2023-06-24T03:21:41;1.58;;;1.40;;
64295;SDS011;51082;38.236;15.432;2023-06-24T03:22:44;4.38;;;1.85;;
64295;SDS011;51082;38.236;15.432;2023-06-24T03:23:45;2.38;;;1.60;;
64295;SDS011;51082;38.236;15.432;2023-06-24T03:24:48;2.78;;;1.80;;
64295;SDS011;51082;38.236;15.432;2023-06-24T03:25:50;5.78;;;1.27;;
64295;SDS011;51082;38.236;15.432;2023-06-24T03:26:53;2.03;;;1.83;;
64295;SDS011;51082;38.236;15.432;2023-06-24T03:27:57;1.23;;;1.13;;
64295;SDS011;51082;38.236;15.432;2023-06-24T03:29:01;4.10;;;1.58;;
64295;SDS011;51082;38.236;15.432;2023-06-24T03:30:03;2.53;;;1.77;;
64295;SDS011;51082;38.236;15.432;2023-06-24T03:31:06;1.67;;;1.58;;
64295;SDS011;51082;38.236;15.432;2023-06-24T03:32:08;1.35;;;1.25;;
64295;SDS011;51082;38.236;15.432;2023-06-24T03:33:10;1.70;;;1.52;;
64295;SDS011;51082;38.236;15.432;2023-06-24T03:34:17;1.73;;;1.52;;
64295;SDS011;51082;38.236;15.432;2023-06-24T03:35:20;2.25;;;1.80;;
64295;SDS011;51082;38.236;15.432;2023-06-24T03:36:23;3.53;;;1.67;;
64295;SDS011;51082;38.236;15.432;2023-06-24T03:37:27;3.85;;;1.63;;
64295;SDS011;51082;38.236;15.432;2023-06-24T03:38:29;3.28;;;1.70;;
64295;SDS011;51082;38.236;15.432;2023-06-24T03:39:32;3.95;;;1.42;;
64295;SDS011;51082;38.236;15.432;2023-06-24T03:40:34;7.55;;;1.88;;
64295;SDS011;51082;38.236;15.432;2023-06-24T03:41:36;2.00;;;1.50;;
64295;SDS011;51082;38.236;15.432;2023-06-24T03:42:39;1.42;;;1.33;;
64295;SDS011;51082;38.236;15.432;2023-06-24T03:43:42;1.95;;;1.75;;
64295;SDS011;51082;38.236;15.432;2023-06-24T03:44:45;3.47;;;1.00;;
64295;SDS011;51082;38.236;15.432;2023-06-24T03:45:48;2.00;;;1.88;;
64295;SDS011;51082;38.236;15.432;2023-06-24T03:46:49;2.45;;;1.70;;
64295;SDS011;51082;38.236;15.432;2023-06-24T03:47:52;5.20;;;1.33;;
64295;SDS011;51082;38.236;15.432;2023-06-24T03:48:54;5.68;;;1.60;;
64295;SDS011;51082;38.236;15.432;2023-06-24T03:49:56;4.53;;;1.73;;
64295;SDS011;51082;38.236;15.432;2023-06-24T03:50:58;1.58;;;1.48;;
64295;SDS011;51082;38.236;15.432;2023-06-24T03:52:01;1.65;;;1.55;;
64295;SDS011;51082;38.236;15.432;2023-06-24T03:53:04;5.63;;;1.75;;
64295;SDS011;51082;38.236;15.432;2023-06-24T03:54:07;1.90;;;1.70;;
64295;SDS011;51082;38.236;15.432;2023-06-24T03:55:08;6.07;;;2.03;;
64295;SDS011;51082;38.236;15.432;2023-06-24T03:56:11;1.42;;;1.20;;
64295;SDS011;51082;38.236;15.432;2023-06-24T03:57:13;1.95;;;1.48;;
64295;SDS011;51082;38.236;15.432;2023-06-24T03:58:16;6.60;;;1.75;;
64295;SDS011;51082;38.236;15.432;2023-06-24T03:59:17;5.80;;;1.40;;
64295;SDS011;51082;38.236;15.432;2023-06-24T04:00:21;2.78;;;1.60;;
64295;SDS011;51082;38.236;15.432;2023-06-24T04:01:22;5.18;;;2.20;;
64295;SDS011;51082;38.236;15.432;2023-06-24T04:02:25;5.78;;;2.05;;
64295;SDS011;51082;38.236;15.432;2023-06-24T04:03:27;2.25;;;1.60;;
64295;SDS011;51082;38.236;15.432;2023-06-24T04:04:30;2.10;;;1.50;;
64295;SDS011;51082;38.236;15.432;2023-06-24T04:05:32;4.57;;;2.03;;
64295;SDS011;51082;38.236;15.432;2023-06-24T04:06:35;3.38;;;1.88;;
64295;SDS011;51082;38.236;15.432;2023-06-24T04:07:36;6.28;;;1.83;;
64295;SDS011;51082;38.236;15.432;2023-06-24T04:08:41;5.90;;;2.35;;
64295;SDS011;51082;38.236;15.432;2023-06-24T04:09:43;2.13;;;1.63;;
64295;SDS011;51082;38.236;15.432;2023-06-24T04:10:46;5.97;;;1.85;;
64295;SDS011;51082;38.236;15.432;2023-06-24T04:11:48;4.90;;;2.38;;
64295;SDS011;51082;38.236;15.432;2023-06-24T04:12:50;3.83;;;1.63;;
64295;SDS011;51082;38.236;15.432;2023-06-24T04:13:52;4.20;;;1.75;;
64295;SDS011;51082;38.236;15.432;2023-06-24T04:14:55;3.92;;;1.88;;
64295;SDS011;51082;38.236;15.432;2023-06-24T04:15:56;8.48;;;1.67;;
64295;SDS011;51082;38.236;15.432;2023-06-24T04:16:59;3.22;;;1.88;;
64295;SDS011;51082;38.236;15.432;2023-06-24T04:18:02;1.75;;;1.63;;
64295;SDS011;51082;38.236;15.432;2023-06-24T04:19:05;3.50;;;1.88;;
64295;SDS011;51082;38.236;15.432;2023-06-24T04:20:07;3.55;;;1.95;;
64295;SDS011;51082;38.236;15.432;2023-06-24T04:21:10;2.85;;;1.80;;
64295;SDS011;51082;38.236;15.432;2023-06-24T04:22:12;3.30;;;2.08;;
64295;SDS011;51082;38.236;15.432;2023-06-24T04:23:15;5.13;;;1.77;;
64295;SDS011;51082;38.236;15.432;2023-06-24T04:24:18;6.97;;;1.80;;
64295;SDS011;51082;38.236;15.432;2023-06-24T04:25:21;2.08;;;1.80;;
64295;SDS011;51082;38.236;15.432;2023-06-24T04:26:22;1.83;;;1.63;;
64295;SDS011;51082;38.236;15.432;2023-06-24T04:27:25;4.28;;;1.73;;
64295;SDS011;51082;38.236;15.432;2023-06-24T04:28:27;5.22;;;1.77;;
64295;SDS011;51082;38.236;15.432;2023-06-24T04:29:30;4.85;;;2.10;;
64295;SDS011;51082;38.236;15.432;2023-06-24T04:30:32;3.55;;;2.10;;
64295;SDS011;51082;38.236;15.432;2023-06-24T04:31:36;2.40;;;2.05;;
64295;SDS011;51082;38.236;15.432;2023-06-24T04:32:37;4.07;;;2.25;;
64295;SDS011;51082;38.236;15.432;2023-06-24T04:33:40;2.20;;;1.23;;
64295;SDS011;51082;38.236;15.432;2023-06-24T04:34:42;3.80;;;1.75;;
64295;SDS011;51082;38.236;15.432;2023-06-24T04:35:44;3.60;;;1.80;;
64295;SDS011;51082;38.236;15.432;2023-06-24T04:36:46;2.50;;;1.77;;
64295;SDS011;51082;38.236;15.432;2023-06-24T04:37:48;4.65;;;2.08;;
64295;SDS011;51082;38.236;15.432;2023-06-24T04:38:50;1.80;;;1.60;;
64295;SDS011;51082;38.236;15.432;2023-06-24T04:39:55;3.67;;;2.13;;
64295;SDS011;51082;38.236;15.432;2023-06-24T04:40:57;4.07;;;2.20;;
64295;SDS011;51082;38.236;15.432;2023-06-24T04:41:59;2.35;;;1.95;;
64295;SDS011;51082;38.236;15.432;2023-06-24T04:43:01;4.30;;;2.50;;
64295;SDS011;51082;38.236;15.432;2023-06-24T04:44:04;6.53;;;2.38;;
64295;SDS011;51082;38.236;15.432;2023-06-24T04:45:06;4.07;;;2.50;;
64295;SDS011;51082;38.236;15.432;2023-06-24T04:46:09;4.22;;;2.50;;
64295;SDS011;51082;38.236;15.432;2023-06-24T04:47:11;2.90;;;2.20;;
64295;SDS011;51082;38.236;15.432;2023-06-24T04:48:14;5.85;;;2.28;;
64295;SDS011;51082;38.236;15.432;2023-06-24T04:49:16;5.20;;;2.53;;
64295;SDS011;51082;38.236;15.432;2023-06-24T04:50:19;5.82;;;2.90;;
64295;SDS011;51082;38.236;15.432;2023-06-24T04:51:21;4.15;;;2.40;;
64295;SDS011;51082;38.236;15.432;2023-06-24T04:52:23;2.28;;;1.95;;
64295;SDS011;51082;38.236;15.432;2023-06-24T04:53:25;2.67;;;2.15;;
64295;SDS011;51082;38.236;15.432;2023-06-24T04:54:28;3.88;;;2.38;;
64295;SDS011;51082;38.236;15.432;2023-06-24T04:55:31;7.32;;;2.35;;
64295;SDS011;51082;38.236;15.432;2023-06-24T04:56:34;7.43;;;2.53;;
64295;SDS011;51082;38.236;15.432;2023-06-24T04:57:35;3.13;;;2.00;;
64295;SDS011;51082;38.236;15.432;2023-06-24T04:58:38;2.80;;;1.85;;
64295;SDS011;51082;38.236;15.432;2023-06-24T04:59:40;2.35;;;2.00;;
64295;SDS011;51082;38.236;15.432;2023-06-24T05:00:43;4.90;;;2.35;;
64295;SDS011;51082;38.236;15.432;2023-06-24T05:01:44;4.50;;;2.50;;
64295;SDS011;51082;38.236;15.432;2023-06-24T05:02:47;6.95;;;2.17;;
64295;SDS011;51082;38.236;15.432;2023-06-24T05:03:48;7.28;;;2.30;;
64295;SDS011;51082;38.236;15.432;2023-06-24T05:04:52;4.97;;;2.65;;
64295;SDS011;51082;38.236;15.432;2023-06-24T05:05:53;4.03;;;2.50;;
64295;SDS011;51082;38.236;15.432;2023-06-24T05:06:57;15.05;;;2.47;;
64295;SDS011;51082;38.236;15.432;2023-06-24T05:07:58;5.07;;;2.42;;
64295;SDS011;51082;38.236;15.432;2023-06-24T05:09:01;4.78;;;2.10;;
64295;SDS011;51082;38.236;15.432;2023-06-24T05:10:03;11.85;;;3.00;;
64295;SDS011;51082;38.236;15.432;2023-06-24T05:11:07;4.15;;;2.83;;
64295;SDS011;51082;38.236;15.432;2023-06-24T05:12:09;2.92;;;2.10;;
64295;SDS011;51082;38.236;15.432;2023-06-24T05:13:11;3.25;;;2.22;;
64295;SDS011;51082;38.236;15.432;2023-06-24T05:14:13;3.20;;;2.13;;
64295;SDS011;51082;38.236;15.432;2023-06-24T05:15:16;4.00;;;2.40;;
64295;SDS011;51082;38.236;15.432;2023-06-24T05:16:17;7.25;;;2.35;;
64295;SDS011;51082;38.236;15.432;2023-06-24T05:17:20;2.65;;;1.85;;
64295;SDS011;51082;38.236;15.432;2023-06-24T05:18:22;8.07;;;2.63;;
64295;SDS011;51082;38.236;15.432;2023-06-24T05:19:25;4.25;;;2.95;;
64295;SDS011;51082;38.236;15.432;2023-06-24T05:20:27;6.97;;;2.80;;
64295;SDS011;51082;38.236;15.432;2023-06-24T05:21:29;4.68;;;2.45;;
64295;SDS011;51082;38.236;15.432;2023-06-24T05:22:31;6.32;;;2.92;;
64295;SDS011;51082;38.236;15.432;2023-06-24T05:23:34;3.20;;;2.50;;
64295;SDS011;51082;38.236;15.432;2023-06-24T05:24:35;3.88;;;2.25;;
64295;SDS011;51082;38.236;15.432;2023-06-24T05:25:38;5.95;;;2.85;;
64295;SDS011;51082;38.236;15.432;2023-06-24T05:26:41;3.40;;;2.53;;
64295;SDS011;51082;38.236;15.432;2023-06-24T05:27:44;6.80;;;2.33;;
64295;SDS011;51082;38.236;15.432;2023-06-24T05:28:45;6.97;;;2.22;;
64295;SDS011;51082;38.236;15.432;2023-06-24T05:29:48;3.63;;;2.58;;
64295;SDS011;51082;38.236;15.432;2023-06-24T05:30:50;6.43;;;2.78;;
64295;SDS011;51082;38.236;15.432;2023-06-24T05:31:52;6.47;;;2.60;;
64295;SDS011;51082;38.236;15.432;2023-06-24T05:32:54;4.03;;;2.80;;
64295;SDS011;51082;38.236;15.432;2023-06-24T05:33:57;4.88;;;2.65;;
64295;SDS011;51082;38.236;15.432;2023-06-24T05:34:58;11.25;;;3.22;;
64295;SDS011;51082;38.236;15.432;2023-06-24T05:36:01;6.15;;;2.83;;
64295;SDS011;51082;38.236;15.432;2023-06-24T05:37:03;4.20;;;2.10;;
64295;SDS011;51082;38.236;15.432;2023-06-24T05:38:05;2.08;;;1.80;;
64295;SDS011;51082;38.236;15.432;2023-06-24T05:39:07;21.27;;;7.35;;
64295;SDS011;51082;38.236;15.432;2023-06-24T05:40:10;21.08;;;9.77;;
64295;SDS011;51082;38.236;15.432;2023-06-24T05:41:13;17.70;;;6.30;;
64295;SDS011;51082;38.236;15.432;2023-06-24T05:42:17;6.78;;;4.32;;
64295;SDS011;51082;38.236;15.432;2023-06-24T05:43:19;7.20;;;4.22;;
64295;SDS011;51082;38.236;15.432;2023-06-24T05:44:22;4.80;;;3.80;;
64295;SDS011;51082;38.236;15.432;2023-06-24T05:45:23;9.40;;;3.28;;
64295;SDS011;51082;38.236;15.432;2023-06-24T05:46:26;9.68;;;3.63;;
64295;SDS011;51082;38.236;15.432;2023-06-24T05:47:28;6.28;;;2.80;;
64295;SDS011;51082;38.236;15.432;2023-06-24T05:48:30;6.25;;;3.42;;
64295;SDS011;51082;38.236;15.432;2023-06-24T05:49:32;12.30;;;3.08;;
64295;SDS011;51082;38.236;15.432;2023-06-24T05:50:35;11.93;;;5.00;;
64295;SDS011;51082;38.236;15.432;2023-06-24T05:51:36;5.35;;;3.97;;
64295;SDS011;51082;38.236;15.432;2023-06-24T05:52:39;5.40;;;3.47;;
64295;SDS011;51082;38.236;15.432;2023-06-24T05:53:41;8.77;;;2.60;;
64295;SDS011;51082;38.236;15.432;2023-06-24T05:54:43;4.28;;;2.35;;
64295;SDS011;51082;38.236;15.432;2023-06-24T05:55:45;4.03;;;2.22;;
64295;SDS011;51082;38.236;15.432;2023-06-24T05:56:48;7.60;;;2.40;;
64295;SDS011;51082;38.236;15.432;2023-06-24T05:57:51;5.15;;;2.10;;
64295;SDS011;51082;38.236;15.432;2023-06-24T05:58:54;10.43;;;2.67;;
64295;SDS011;51082;38.236;15.432;2023-06-24T05:59:56;8.43;;;2.65;;
64295;SDS011;51082;38.236;15.432;2023-06-24T06:00:58;5.80;;;2.97;;
64295;SDS011;51082;38.236;15.432;2023-06-24T06:02:01;3.60;;;1.52;;
64295;SDS011;51082;38.236;15.432;2023-06-24T06:03:04;3.72;;;2.25;;
64295;SDS011;51082;38.236;15.432;2023-06-24T06:04:06;3.58;;;1.95;;
64295;SDS011;51082;38.236;15.432;2023-06-24T06:05:09;3.08;;;2.72;;
64295;SDS011;51082;38.236;15.432;2023-06-24T06:06:10;5.57;;;2.40;;
64295;SDS011;51082;38.236;15.432;2023-06-24T06:07:13;6.50;;;2.72;;
64295;SDS011;51082;38.236;15.432;2023-06-24T06:08:15;6.55;;;2.22;;
64295;SDS011;51082;38.236;15.432;2023-06-24T06:09:17;8.93;;;2.95;;
64295;SDS011;51082;38.236;15.432;2023-06-24T06:10:19;7.25;;;2.70;;
64295;SDS011;51082;38.236;15.432;2023-06-24T06:11:22;5.53;;;2.58;;
64295;SDS011;51082;38.236;15.432;2023-06-24T06:12:23;3.95;;;2.05;;
64295;SDS011;51082;38.236;15.432;2023-06-24T06:13:27;4.03;;;2.05;;
64295;SDS011;51082;38.236;15.432;2023-06-24T06:14:29;5.18;;;2.38;;
64295;SDS011;51082;38.236;15.432;2023-06-24T06:15:32;2.63;;;1.98;;
64295;SDS011;51082;38.236;15.432;2023-06-24T06:16:34;4.32;;;2.03;;
64295;SDS011;51082;38.236;15.432;2023-06-24T06:17:37;2.85;;;1.80;;
64295;SDS011;51082;38.236;15.432;2023-06-24T06:18:39;3.80;;;2.08;;
64295;SDS011;51082;38.236;15.432;2023-06-24T06:19:42;10.25;;;2.40;;